createdAt,value
2022-07-29T00:01:03.634Z,1.35
2022-07-29T00:03:31.119Z,1.50
2022-07-29T00:05:58.508Z,1.33
2022-07-29T00:08:25.901Z,1.70
2022-07-29T00:10:53.217Z,1.13
2022-07-29T00:13:32.517Z,2.03
2022-07-29T00:16:04.744Z,1.58
2022-07-29T00:18:32.866Z,1.52
2022-07-29T00:21:00.201Z,1.20
2022-07-29T00:23:27.458Z,1.77
2022-07-29T00:25:54.739Z,1.55
2022-07-29T00:28:21.941Z,1.50
2022-07-29T00:30:49.226Z,1.33
2022-07-29T00:33:16.541Z,1.60
2022-07-29T00:35:47.415Z,1.63
2022-07-29T00:38:14.880Z,1.83
2022-07-29T00:40:43.316Z,1.30
2022-07-29T00:43:11.863Z,1.30
2022-07-29T00:45:39.122Z,1.67
2022-07-29T00:48:06.423Z,1.55
2022-07-29T00:50:33.652Z,1.45
2022-07-29T00:53:00.848Z,1.67
2022-07-29T00:55:28.200Z,1.52
2022-07-29T00:57:55.439Z,2.30
2022-07-29T01:00:22.826Z,1.70
2022-07-29T01:02:50.078Z,1.40
2022-07-29T01:05:17.451Z,1.48
2022-07-29T01:07:44.674Z,1.40
2022-07-29T01:10:11.981Z,1.48
2022-07-29T01:12:39.231Z,1.50
2022-07-29T01:15:07.126Z,1.20
2022-07-29T01:17:34.469Z,1.38
2022-07-29T01:20:02.303Z,1.45
2022-07-29T01:22:29.585Z,1.80
2022-07-29T01:24:56.881Z,1.27
2022-07-29T01:27:24.136Z,1.60
2022-07-29T01:29:51.628Z,2.50
2022-07-29T01:32:28.203Z,1.83
2022-07-29T01:34:56.591Z,1.30
2022-07-29T01:37:23.807Z,1.73
2022-07-29T01:39:51.029Z,1.48
2022-07-29T01:42:18.306Z,2.13
2022-07-29T01:44:45.613Z,1.92
2022-07-29T01:47:12.946Z,1.65
2022-07-29T01:49:40.232Z,1.67
2022-07-29T01:52:07.525Z,1.70
2022-07-29T01:54:34.770Z,2.08
2022-07-29T01:57:02.074Z,2.53
2022-07-29T01:59:29.347Z,2.38
2022-07-29T02:01:58.158Z,2.67
2022-07-29T02:04:29.304Z,2.40
2022-07-29T02:06:57.543Z,2.78
2022-07-29T02:09:24.786Z,2.50
2022-07-29T02:11:52.292Z,2.45
2022-07-29T02:14:19.565Z,2.35
2022-07-29T02:16:46.848Z,2.13
2022-07-29T02:19:14.067Z,2.10
2022-07-29T02:21:41.382Z,2.20
2022-07-29T02:24:08.656Z,2.20
2022-07-29T02:26:35.915Z,2.15
2022-07-29T02:29:03.318Z,1.92
2022-07-29T02:31:30.636Z,1.92
2022-07-29T02:33:57.945Z,1.90
2022-07-29T02:36:25.269Z,2.22
2022-07-29T02:38:52.671Z,1.65
2022-07-29T02:41:20.003Z,1.95
2022-07-29T02:43:47.269Z,1.70
2022-07-29T02:46:28.523Z,1.90
2022-07-29T02:48:56.999Z,1.65
2022-07-29T02:51:43.554Z,1.90
2022-07-29T02:54:11.800Z,2.00
2022-07-29T02:56:39.138Z,1.92
2022-07-29T02:59:06.529Z,2.28
2022-07-29T03:01:33.941Z,2.40
2022-07-29T03:04:01.999Z,2.50
2022-07-29T03:06:38.872Z,2.22
2022-07-29T03:09:12.020Z,2.15
2022-07-29T03:11:46.209Z,2.50
2022-07-29T03:14:18.506Z,2.22
2022-07-29T03:16:46.002Z,1.80
2022-07-29T03:19:13.294Z,1.90
2022-07-29T03:21:40.594Z,2.15
2022-07-29T03:24:10.534Z,2.08
2022-07-29T03:26:38.369Z,1.65
2022-07-29T03:29:05.756Z,2.33
2022-07-29T03:31:33.491Z,2.00
2022-07-29T03:34:00.929Z,2.15
2022-07-29T03:36:28.288Z,1.90
2022-07-29T03:38:55.717Z,1.90
2022-07-29T03:41:23.098Z,1.80
2022-07-29T03:43:50.429Z,1.75
2022-07-29T03:46:18.465Z,2.97
2022-07-29T03:48:46.057Z,2.03
2022-07-29T03:51:13.417Z,2.15
2022-07-29T03:53:40.682Z,3.15
2022-07-29T03:56:07.933Z,2.00
2022-07-29T03:58:35.177Z,2.95
2022-07-29T04:01:02.449Z,2.53
2022-07-29T04:03:29.729Z,2.20
2022-07-29T04:05:57.091Z,2.38
2022-07-29T04:08:24.367Z,1.70
2022-07-29T04:10:53.020Z,1.85
2022-07-29T04:13:20.315Z,2.42
2022-07-29T04:15:47.718Z,1.92
2022-07-29T04:18:15.023Z,2.42
2022-07-29T04:20:42.390Z,2.55
2022-07-29T04:23:09.659Z,2.38
2022-07-29T04:25:36.940Z,2.25
2022-07-29T04:28:04.375Z,2.28
2022-07-29T04:30:31.959Z,2.03
2022-07-29T04:32:59.277Z,2.75
2022-07-29T04:35:26.559Z,2.60
2022-07-29T04:37:53.740Z,2.10
2022-07-29T04:40:21.007Z,2.25
2022-07-29T04:42:48.254Z,2.63
2022-07-29T04:45:16.806Z,2.40
2022-07-29T04:47:50.202Z,2.67
2022-07-29T04:50:17.678Z,2.40
2022-07-29T04:52:45.107Z,2.30
2022-07-29T04:55:12.356Z,2.10
2022-07-29T04:57:39.591Z,2.20
2022-07-29T05:00:06.820Z,2.20
2022-07-29T05:02:34.243Z,3.10
2022-07-29T05:05:01.564Z,2.40
2022-07-29T05:07:28.839Z,2.05
2022-07-29T05:09:57.982Z,2.33
2022-07-29T05:12:25.307Z,2.22
2022-07-29T05:14:52.510Z,2.20
2022-07-29T05:17:19.886Z,1.75
2022-07-29T05:19:47.274Z,2.47
2022-07-29T05:22:14.579Z,2.53
2022-07-29T05:24:41.898Z,2.30
2022-07-29T05:27:09.168Z,2.00
2022-07-29T05:29:43.122Z,2.42
2022-07-29T05:32:12.910Z,2.50
2022-07-29T05:34:50.370Z,2.42
2022-07-29T05:37:18.908Z,2.33
2022-07-29T05:39:48.672Z,2.10
2022-07-29T05:42:18.083Z,2.05
2022-07-29T05:44:45.401Z,2.45
2022-07-29T05:47:12.699Z,2.50
2022-07-29T05:49:39.893Z,2.22
2022-07-29T05:52:07.244Z,2.35
2022-07-29T05:54:34.514Z,2.40
2022-07-29T05:57:01.758Z,2.10
2022-07-29T05:59:30.559Z,2.22
2022-07-29T06:01:58.643Z,2.33
2022-07-29T06:04:26.017Z,2.08
2022-07-29T06:06:53.356Z,2.10
2022-07-29T06:09:20.576Z,2.17
2022-07-29T06:11:47.844Z,1.73
2022-07-29T06:14:15.408Z,2.20
2022-07-29T06:16:43.819Z,2.03
2022-07-29T06:19:11.108Z,1.92
2022-07-29T06:21:38.704Z,2.03
2022-07-29T06:24:09.543Z,2.58
2022-07-29T06:26:39.748Z,2.10
2022-07-29T06:29:07.467Z,1.80
2022-07-29T06:31:34.714Z,2.05
2022-07-29T06:34:02.013Z,2.55
2022-07-29T06:36:30.819Z,2.20
2022-07-29T06:38:58.098Z,2.05
2022-07-29T06:41:25.416Z,2.67
2022-07-29T06:43:54.483Z,2.20
2022-07-29T06:46:22.230Z,2.20
2022-07-29T06:48:49.809Z,2.67
2022-07-29T06:51:23.411Z,2.03
2022-07-29T06:54:00.250Z,2.47
2022-07-29T06:56:30.548Z,2.22
2022-07-29T06:58:57.839Z,2.10
2022-07-29T07:01:25.210Z,2.60
2022-07-29T07:03:52.534Z,2.30
2022-07-29T07:06:19.957Z,3.10
2022-07-29T07:08:47.203Z,2.50
2022-07-29T07:11:14.570Z,2.85
2022-07-29T07:13:41.855Z,2.05
2022-07-29T07:16:09.239Z,2.30
2022-07-29T07:18:36.719Z,1.95
2022-07-29T07:21:05.975Z,2.08
2022-07-29T07:23:33.239Z,2.58
2022-07-29T07:26:00.570Z,2.00
2022-07-29T07:28:27.844Z,2.08
2022-07-29T07:30:55.162Z,1.75
2022-07-29T07:33:22.472Z,3.13
2022-07-29T07:35:49.827Z,2.13
2022-07-29T07:38:17.069Z,1.70
2022-07-29T07:40:44.565Z,1.92
2022-07-29T07:43:11.896Z,2.35
2022-07-29T07:45:40.417Z,2.30
2022-07-29T07:48:07.759Z,2.75
2022-07-29T07:50:35.254Z,3.00
2022-07-29T07:53:03.213Z,1.95
2022-07-29T07:55:38.358Z,3.17
2022-07-29T07:58:17.850Z,2.42
2022-07-29T08:00:45.112Z,1.95
2022-07-29T08:03:17.059Z,2.65
2022-07-29T08:05:44.744Z,2.13
2022-07-29T08:08:12.014Z,2.60
2022-07-29T08:10:54.815Z,2.45
2022-07-29T08:13:22.233Z,1.75
2022-07-29T08:15:58.751Z,2.00
2022-07-29T08:18:26.344Z,1.90
2022-07-29T08:20:53.638Z,1.92
2022-07-29T08:23:20.955Z,1.80
2022-07-29T08:25:50.138Z,1.60
2022-07-29T08:28:17.824Z,1.65
2022-07-29T08:30:45.118Z,1.35
2022-07-29T08:33:12.456Z,1.77
2022-07-29T08:35:39.778Z,1.67
2022-07-29T08:38:07.218Z,2.20
2022-07-29T08:40:34.565Z,1.27
2022-07-29T08:43:01.891Z,1.33
2022-07-29T08:45:29.360Z,1.65
2022-07-29T08:47:56.761Z,1.52
2022-07-29T08:50:24.018Z,1.50
2022-07-29T08:52:52.869Z,1.60
2022-07-29T08:55:22.005Z,1.92
2022-07-29T08:57:51.924Z,1.83
2022-07-29T09:00:21.631Z,2.03
2022-07-29T09:02:49.025Z,1.90
2022-07-29T09:05:16.403Z,2.08
2022-07-29T09:07:44.875Z,2.20
2022-07-29T09:10:12.572Z,1.77
2022-07-29T09:12:39.805Z,1.90
2022-07-29T09:15:07.050Z,1.38
2022-07-29T09:17:34.287Z,1.80
2022-07-29T09:20:01.620Z,1.33
2022-07-29T09:22:28.879Z,1.70
2022-07-29T09:24:56.368Z,1.55
2022-07-29T09:27:23.750Z,1.75
2022-07-29T09:29:51.034Z,1.52
2022-07-29T09:32:18.964Z,1.63
2022-07-29T09:34:46.246Z,1.73
2022-07-29T09:37:13.638Z,1.20
2022-07-29T09:39:46.776Z,1.67
2022-07-29T09:44:43.520Z,2.30
2022-07-29T09:47:11.009Z,1.45
2022-07-29T09:49:38.396Z,1.40
2022-07-29T09:52:05.747Z,1.75
2022-07-29T09:54:39.634Z,1.60
2022-07-29T09:57:07.047Z,1.40
2022-07-29T09:59:34.329Z,1.48
2022-07-29T10:02:01.641Z,1.70
2022-07-29T10:04:28.939Z,1.73
2022-07-29T10:07:03.536Z,1.70
2022-07-29T10:09:31.975Z,1.45
2022-07-29T10:11:59.485Z,1.95
2022-07-29T10:14:26.891Z,1.60
2022-07-29T10:16:55.054Z,1.90
2022-07-29T10:19:22.411Z,1.77
2022-07-29T10:21:49.675Z,1.67
2022-07-29T10:24:17.227Z,1.77
2022-07-29T10:26:45.693Z,1.95
2022-07-29T10:29:13.747Z,1.73
2022-07-29T10:31:41.358Z,1.73
2022-07-29T10:34:08.720Z,1.60
2022-07-29T10:36:35.965Z,1.88
2022-07-29T10:39:04.224Z,1.60
2022-07-29T10:41:43.894Z,1.15
2022-07-29T10:44:17.112Z,1.45
2022-07-29T10:46:44.790Z,2.00
2022-07-29T10:49:15.151Z,1.60
2022-07-29T10:51:42.937Z,1.35
2022-07-29T10:54:10.659Z,1.50
2022-07-29T10:56:38.544Z,1.25
2022-07-29T10:59:05.762Z,1.20
2022-07-29T11:01:37.178Z,1.75
2022-07-29T11:04:06.185Z,1.85
2022-07-29T11:06:35.508Z,1.45
2022-07-29T11:09:10.151Z,1.45
2022-07-29T11:11:38.042Z,1.40
2022-07-29T11:14:05.412Z,1.40
2022-07-29T11:16:37.870Z,1.70
2022-07-29T11:19:05.089Z,1.30
2022-07-29T11:21:48.887Z,1.92
2022-07-29T11:24:29.161Z,1.77
2022-07-29T11:27:00.483Z,1.67
2022-07-29T11:29:28.115Z,1.40
2022-07-29T11:31:56.938Z,2.33
2022-07-29T11:34:28.048Z,1.20
2022-07-29T11:36:57.372Z,1.38
2022-07-29T11:39:25.337Z,1.27
2022-07-29T11:41:53.600Z,1.25
2022-07-29T11:44:23.404Z,1.05
2022-07-29T11:46:54.297Z,1.42
2022-07-29T11:49:31.662Z,1.38
2022-07-29T11:52:02.603Z,1.13
2022-07-29T11:54:30.532Z,1.40
2022-07-29T11:56:57.802Z,1.20
2022-07-29T11:59:33.116Z,1.25
2022-07-29T12:02:36.556Z,1.23
2022-07-29T12:04:51.200Z,1.30
2022-07-29T12:07:20.250Z,1.40
2022-07-29T12:09:48.138Z,1.38
2022-07-29T12:12:15.392Z,1.08
2022-07-29T12:14:46.596Z,1.40
2022-07-29T12:17:13.831Z,1.15
2022-07-29T12:19:41.191Z,1.30
2022-07-29T12:22:08.909Z,1.27
2022-07-29T12:24:36.138Z,1.30
2022-07-29T12:27:05.482Z,1.48
2022-07-29T12:29:35.276Z,1.25
2022-07-29T12:32:03.293Z,1.38
2022-07-29T12:34:30.972Z,2.10
2022-07-29T12:36:58.263Z,0.98
2022-07-29T12:39:27.516Z,1.23
2022-07-29T12:42:04.880Z,1.25
2022-07-29T12:44:32.566Z,1.30
2022-07-29T12:47:00.274Z,1.20
2022-07-29T12:49:27.859Z,1.40
2022-07-29T12:51:55.786Z,1.25
2022-07-29T12:54:23.398Z,1.85
2022-07-29T12:56:52.713Z,1.85
2022-07-29T12:59:20.052Z,1.23
2022-07-29T13:01:49.075Z,1.33
2022-07-29T13:04:17.095Z,1.70
2022-07-29T13:06:45.961Z,2.38
2022-07-29T13:09:16.977Z,1.42
2022-07-29T13:11:48.388Z,1.38
2022-07-29T13:14:16.212Z,1.40
2022-07-29T13:16:43.531Z,1.55
2022-07-29T13:19:10.936Z,1.08
2022-07-29T13:21:38.345Z,1.42
2022-07-29T13:24:05.633Z,3.05
2022-07-29T13:26:32.916Z,1.60
2022-07-29T13:29:00.232Z,1.45
2022-07-29T13:31:27.618Z,1.42
2022-07-29T13:33:54.895Z,1.20
2022-07-29T13:36:22.166Z,1.25
2022-07-29T13:38:49.509Z,1.23
2022-07-29T13:41:16.850Z,1.52
2022-07-29T13:43:45.042Z,1.58
2022-07-29T13:46:12.384Z,1.10
2022-07-29T13:48:39.762Z,1.60
2022-07-29T13:51:07.278Z,2.55
2022-07-29T13:53:34.724Z,1.10
2022-07-29T13:56:02.052Z,1.58
2022-07-29T13:58:29.481Z,1.35
2022-07-29T14:00:56.909Z,1.50
2022-07-29T14:03:25.114Z,1.30
2022-07-29T14:05:52.426Z,1.17
2022-07-29T14:08:19.688Z,1.33
2022-07-29T14:10:47.008Z,1.42
2022-07-29T14:13:19.683Z,1.42
2022-07-29T14:15:52.796Z,1.20
2022-07-29T14:18:21.064Z,1.35
2022-07-29T14:20:48.538Z,1.20
2022-07-29T14:23:16.289Z,1.10
2022-07-29T14:25:44.490Z,1.30
2022-07-29T14:28:12.049Z,1.30
2022-07-29T14:30:42.071Z,1.25
2022-07-29T14:33:09.371Z,1.80
2022-07-29T14:35:36.752Z,1.75
2022-07-29T14:38:04.207Z,1.05
2022-07-29T14:40:31.638Z,1.40
2022-07-29T14:43:02.647Z,1.38
2022-07-29T14:45:30.106Z,1.23
2022-07-29T14:47:57.626Z,1.20
2022-07-29T14:50:31.329Z,1.13
2022-07-29T14:52:59.586Z,1.35
2022-07-29T14:55:26.942Z,1.40
2022-07-29T14:58:00.726Z,1.23
2022-07-29T15:00:35.346Z,1.88
2022-07-29T15:03:03.857Z,1.20
2022-07-29T15:05:31.348Z,1.33
2022-07-29T15:07:58.881Z,1.30
2022-07-29T15:10:28.109Z,1.05
2022-07-29T15:12:55.409Z,1.70
2022-07-29T15:15:22.769Z,1.40
2022-07-29T15:17:50.140Z,1.73
2022-07-29T15:20:17.474Z,1.20
2022-07-29T15:22:45.221Z,0.98
2022-07-29T15:25:12.555Z,1.15
2022-07-29T15:27:39.892Z,1.20
2022-07-29T15:30:07.474Z,1.25
2022-07-29T15:32:34.835Z,1.40
2022-07-29T15:35:02.203Z,1.17
2022-07-29T15:37:48.710Z,1.73
2022-07-29T15:40:16.867Z,1.08
2022-07-29T15:42:44.181Z,1.48
2022-07-29T15:45:11.602Z,1.30
2022-07-29T15:47:38.903Z,1.40
2022-07-29T15:50:07.565Z,1.40
2022-07-29T15:52:35.012Z,1.63
2022-07-29T15:55:02.512Z,1.35
2022-07-29T15:57:29.935Z,1.48
2022-07-29T15:59:57.342Z,1.48
2022-07-29T16:02:24.776Z,1.63
2022-07-29T16:04:52.177Z,1.60
2022-07-29T16:07:19.564Z,1.95
2022-07-29T16:09:52.534Z,1.13
2022-07-29T16:12:20.542Z,1.25
2022-07-29T16:14:49.588Z,1.50
2022-07-29T16:17:17.069Z,1.42
2022-07-29T16:19:44.567Z,1.50
2022-07-29T16:22:11.889Z,1.27
2022-07-29T16:24:39.223Z,1.38
2022-07-29T16:27:06.675Z,1.58
2022-07-29T16:29:34.243Z,1.40
2022-07-29T16:32:01.970Z,1.83
2022-07-29T16:34:29.733Z,1.73
2022-07-29T16:36:57.057Z,1.38
2022-07-29T16:39:24.323Z,1.48
2022-07-29T16:41:51.943Z,1.38
2022-07-29T16:44:19.224Z,1.25
2022-07-29T16:46:46.892Z,1.40
2022-07-29T16:49:19.168Z,1.63
2022-07-29T16:51:48.047Z,1.50
2022-07-29T16:54:15.500Z,1.08
2022-07-29T16:56:42.791Z,1.20
2022-07-29T16:59:10.184Z,1.20
2022-07-29T17:01:37.597Z,1.42
2022-07-29T17:04:08.112Z,1.60
2022-07-29T17:06:35.564Z,1.60
2022-07-29T17:09:02.989Z,1.30
2022-07-29T17:11:52.999Z,1.73
2022-07-29T17:14:17.691Z,1.40
2022-07-29T17:16:58.904Z,1.58
2022-07-29T17:19:28.986Z,1.20
2022-07-29T17:22:03.550Z,1.58
2022-07-29T17:24:36.509Z,1.30
2022-07-29T17:27:05.363Z,1.83
2022-07-29T17:29:32.688Z,1.50
2022-07-29T17:32:00.231Z,2.55
2022-07-29T17:34:30.394Z,1.55
2022-07-29T17:36:58.047Z,2.13
2022-07-29T17:39:25.498Z,1.95
2022-07-29T17:41:52.841Z,2.47
2022-07-29T17:44:20.134Z,2.17
2022-07-29T17:46:47.719Z,2.78
2022-07-29T17:49:15.248Z,1.50
2022-07-29T17:51:42.620Z,2.13
2022-07-29T17:54:10.092Z,1.67
2022-07-29T17:56:37.441Z,1.63
2022-07-29T17:59:06.749Z,1.23
2022-07-29T18:01:35.964Z,1.45
2022-07-29T18:04:03.285Z,1.40
2022-07-29T18:06:30.694Z,1.20
2022-07-29T18:08:58.008Z,1.52
2022-07-29T18:11:25.391Z,1.20
2022-07-29T18:13:52.655Z,1.52
2022-07-29T18:16:20.110Z,1.35
2022-07-29T18:18:47.517Z,1.45
2022-07-29T18:21:14.860Z,1.60
2022-07-29T18:23:42.424Z,1.45
2022-07-29T18:26:10.036Z,1.50
2022-07-29T18:28:37.920Z,1.40
2022-07-29T18:31:07.397Z,1.60
2022-07-29T18:33:34.865Z,2.42
2022-07-29T18:36:06.070Z,1.38
2022-07-29T18:38:39.146Z,1.35
2022-07-29T18:41:06.421Z,1.70
2022-07-29T18:43:33.856Z,1.20
2022-07-29T18:46:01.359Z,1.30
2022-07-29T18:48:31.222Z,2.00
2022-07-29T18:50:58.685Z,1.38
2022-07-29T18:53:26.143Z,1.90
2022-07-29T18:55:56.324Z,2.08
2022-07-29T18:58:27.452Z,1.45
2022-07-29T19:00:54.676Z,1.63
2022-07-29T19:03:22.043Z,1.70
2022-07-29T19:05:49.704Z,1.80
2022-07-29T19:08:17.160Z,1.80
2022-07-29T19:10:44.610Z,1.38
2022-07-29T19:13:13.551Z,1.23
2022-07-29T19:15:41.112Z,1.23
2022-07-29T19:18:08.619Z,1.40
2022-07-29T19:20:36.103Z,2.08
2022-07-29T19:23:03.847Z,1.60
2022-07-29T19:25:31.170Z,1.10
2022-07-29T19:28:05.908Z,1.73
2022-07-29T19:30:33.466Z,1.20
2022-07-29T19:33:00.726Z,1.85
2022-07-29T19:35:28.462Z,1.45
2022-07-29T19:37:55.959Z,1.30
2022-07-29T19:40:23.284Z,1.27
2022-07-29T19:42:51.782Z,1.65
2022-07-29T19:45:19.423Z,1.30
2022-07-29T19:47:46.873Z,1.48
2022-07-29T19:50:14.153Z,1.38
2022-07-29T19:52:41.531Z,1.20
2022-07-29T19:55:08.948Z,2.00
2022-07-29T19:57:40.804Z,1.77
2022-07-29T20:00:11.024Z,1.50
2022-07-29T20:02:38.954Z,1.65
2022-07-29T20:05:06.463Z,1.70
2022-07-29T20:07:33.906Z,1.65
2022-07-29T20:10:01.323Z,1.55
2022-07-29T20:12:28.792Z,1.27
2022-07-29T20:14:56.109Z,1.40
2022-07-29T20:17:23.419Z,1.30
2022-07-29T20:19:50.842Z,1.70
2022-07-29T20:22:21.159Z,1.30
2022-07-29T20:24:48.881Z,1.40
2022-07-29T20:27:16.229Z,1.92
2022-07-29T20:29:43.680Z,1.67
2022-07-29T20:32:12.533Z,2.00
2022-07-29T20:34:41.576Z,1.70
2022-07-29T20:37:14.583Z,1.45
2022-07-29T20:39:47.891Z,1.33
2022-07-29T20:42:15.309Z,1.50
2022-07-29T20:44:42.678Z,1.77
2022-07-29T20:47:10.001Z,1.65
2022-07-29T20:49:37.405Z,1.30
2022-07-29T20:52:04.819Z,1.70
2022-07-29T20:54:32.275Z,1.30
2022-07-29T20:56:59.847Z,1.90
2022-07-29T20:59:27.380Z,1.40
2022-07-29T21:01:55.727Z,1.90
2022-07-29T21:04:30.812Z,1.23
2022-07-29T21:07:00.432Z,1.90
2022-07-29T21:09:28.648Z,1.80
2022-07-29T21:11:56.180Z,2.45
2022-07-29T21:14:35.982Z,1.98
2022-07-29T21:17:06.116Z,1.80
2022-07-29T21:19:33.507Z,1.73
2022-07-29T21:22:01.106Z,1.92
2022-07-29T21:24:28.392Z,1.80
2022-07-29T21:27:21.248Z,1.90
2022-07-29T21:29:49.056Z,1.95
2022-07-29T21:32:27.637Z,2.00
2022-07-29T21:34:57.781Z,1.85
2022-07-29T21:37:25.143Z,2.35
2022-07-29T21:39:52.409Z,2.10
2022-07-29T21:42:19.681Z,1.88
2022-07-29T21:44:47.138Z,1.95
2022-07-29T21:47:14.582Z,2.03
2022-07-29T21:49:42.091Z,1.92
2022-07-29T21:52:09.377Z,1.85
2022-07-29T21:54:36.685Z,1.50
2022-07-29T21:57:04.558Z,1.90
2022-07-29T21:59:32.306Z,1.70
2022-07-29T22:02:01.128Z,2.05
2022-07-29T22:04:28.803Z,1.58
2022-07-29T22:06:56.142Z,2.08
2022-07-29T22:09:24.973Z,1.88
2022-07-29T22:11:52.382Z,1.90
2022-07-29T22:14:19.694Z,1.80
2022-07-29T22:16:47.032Z,1.98
2022-07-29T22:19:14.503Z,2.08
2022-07-29T22:21:41.858Z,1.60
2022-07-29T22:24:10.386Z,1.80
2022-07-29T22:26:38.065Z,1.90
2022-07-29T22:29:05.376Z,1.95
2022-07-29T22:31:32.690Z,2.20
2022-07-29T22:33:59.977Z,2.03
2022-07-29T22:36:27.547Z,2.17
2022-07-29T22:38:54.933Z,2.90
2022-07-29T22:41:22.265Z,3.08
2022-07-29T22:43:49.613Z,3.83
2022-07-29T22:46:16.975Z,4.55
2022-07-29T22:48:44.540Z,4.10
2022-07-29T22:51:12.047Z,4.03
2022-07-29T22:53:47.027Z,3.88
2022-07-29T22:56:14.430Z,3.38
2022-07-29T22:58:47.209Z,3.10
2022-07-29T23:01:14.631Z,3.00
2022-07-29T23:03:42.009Z,3.35
2022-07-29T23:06:18.911Z,2.55
2022-07-29T23:08:46.623Z,2.35
2022-07-29T23:11:13.901Z,2.15
2022-07-29T23:13:41.378Z,2.55
2022-07-29T23:16:08.680Z,2.30
2022-07-29T23:18:35.929Z,2.50
2022-07-29T23:21:03.387Z,2.33
2022-07-29T23:23:32.363Z,2.25
2022-07-29T23:25:59.868Z,2.10
2022-07-29T23:28:27.216Z,2.05
2022-07-29T23:30:54.583Z,2.15
2022-07-29T23:33:22.004Z,2.15
2022-07-29T23:35:49.290Z,2.00
2022-07-29T23:38:16.635Z,1.73
2022-07-29T23:40:43.971Z,1.95
2022-07-29T23:43:11.320Z,1.70
2022-07-29T23:45:44.532Z,1.67
2022-07-29T23:48:12.538Z,1.93
2022-07-29T23:50:39.836Z,1.52
2022-07-29T23:53:07.271Z,1.85
2022-07-29T23:55:36.710Z,1.60
2022-07-29T23:58:06.236Z,2.03
